createdAt,value
2024-03-03T00:02:31.247Z,5.30
2024-03-03T00:05:34.746Z,14.40
2024-03-03T00:08:37.800Z,16.38
2024-03-03T00:14:46.390Z,7.13
2024-03-03T00:17:50.224Z,12.60
2024-03-03T00:20:53.543Z,11.32
2024-03-03T00:23:57.057Z,8.88
2024-03-03T00:27:00.753Z,16.90
2024-03-03T00:30:04.592Z,12.02
2024-03-03T00:33:08.591Z,13.57
2024-03-03T00:36:12.091Z,12.45
2024-03-03T00:39:15.654Z,13.30
2024-03-03T00:42:19.799Z,16.27
2024-03-03T00:45:23.764Z,9.32
2024-03-03T00:51:33.212Z,20.25
2024-03-03T00:54:37.520Z,19.50
2024-03-03T00:57:40.949Z,28.63
2024-03-03T01:00:46.022Z,23.77
2024-03-03T01:03:49.494Z,27.08
2024-03-03T01:06:53.249Z,26.67
2024-03-03T01:09:56.245Z,24.35
2024-03-03T01:12:59.794Z,29.85
2024-03-03T01:16:04.087Z,27.67
2024-03-03T01:19:08.374Z,29.55
2024-03-03T01:22:15.244Z,28.77
2024-03-03T01:25:18.399Z,28.90
2024-03-03T01:28:22.141Z,29.20
2024-03-03T01:31:25.788Z,24.92
2024-03-03T01:34:29.441Z,28.83
2024-03-03T01:37:33.288Z,27.02
2024-03-03T01:40:36.987Z,30.63
2024-03-03T01:43:41.793Z,28.63
2024-03-03T01:46:46.242Z,25.65
2024-03-03T01:49:54.128Z,24.27
2024-03-03T01:52:57.720Z,23.13
2024-03-03T01:56:04.079Z,25.92
2024-03-03T01:59:10.752Z,20.48
2024-03-03T02:02:15.652Z,18.70
2024-03-03T02:05:20.784Z,14.00
2024-03-03T02:08:25.125Z,15.75
2024-03-03T02:11:30.473Z,12.20
2024-03-03T02:14:34.601Z,11.25
2024-03-03T02:17:38.344Z,11.07
2024-03-03T02:20:43.463Z,16.52
2024-03-03T02:23:47.463Z,14.05
2024-03-03T02:26:51.713Z,12.68
2024-03-03T02:29:55.516Z,18.00
2024-03-03T02:32:58.873Z,15.52
2024-03-03T02:36:02.794Z,15.40
2024-03-03T02:39:06.741Z,15.43
2024-03-03T02:42:10.117Z,14.27
2024-03-03T02:45:14.252Z,14.10
2024-03-03T02:48:21.056Z,15.63
2024-03-03T02:51:25.502Z,14.52
2024-03-03T02:54:30.056Z,14.02
2024-03-03T02:57:34.125Z,14.52
2024-03-03T03:00:37.584Z,14.10
2024-03-03T03:03:41.847Z,13.27
2024-03-03T03:06:45.253Z,12.45
2024-03-03T03:09:49.749Z,10.75
2024-03-03T03:12:53.646Z,11.75
2024-03-03T03:15:57.618Z,12.80
2024-03-03T03:19:01.572Z,8.90
2024-03-03T03:25:09.704Z,13.95
2024-03-03T03:28:13.365Z,13.48
2024-03-03T03:31:17.949Z,15.93
2024-03-03T03:34:22.305Z,10.80
2024-03-03T03:37:25.836Z,12.40
2024-03-03T03:40:31.165Z,12.82
2024-03-03T03:43:34.924Z,10.85
2024-03-03T03:46:39.476Z,9.40
2024-03-03T03:49:42.775Z,11.55
2024-03-03T03:52:46.593Z,10.35
2024-03-03T03:55:49.983Z,8.63
2024-03-03T03:58:53.823Z,9.00
2024-03-03T04:01:57.756Z,8.40
2024-03-03T04:05:01.551Z,9.25
2024-03-03T04:08:05.960Z,8.40
2024-03-03T04:11:10.091Z,9.98
2024-03-03T04:14:14.247Z,7.07
2024-03-03T04:17:18.606Z,9.48
2024-03-03T04:20:22.981Z,6.60
2024-03-03T04:23:26.301Z,6.78
2024-03-03T04:26:32.946Z,6.85
2024-03-03T04:29:36.346Z,5.47
2024-03-03T04:32:40.572Z,5.25
2024-03-03T04:35:46.892Z,4.22
2024-03-03T04:38:49.956Z,4.07
2024-03-03T04:41:53.396Z,3.78
2024-03-03T04:44:58.844Z,4.10
2024-03-03T04:48:03.974Z,4.60
2024-03-03T04:54:28.525Z,3.22
2024-03-03T04:57:32.750Z,4.80
2024-03-03T06:26:27.263Z,5.27
2024-03-03T06:29:30.924Z,5.35
2024-03-03T06:32:36.409Z,3.83
2024-03-03T06:35:39.756Z,4.60
2024-03-03T06:38:43.880Z,4.35
2024-03-03T06:48:56.240Z,2.35
2024-03-03T06:52:00.148Z,2.65
2024-03-03T06:55:03.794Z,2.58
2024-03-03T06:58:07.674Z,2.67
2024-03-03T07:01:12.303Z,2.38
2024-03-03T07:04:22.966Z,2.50
2024-03-03T08:22:51.506Z,2.33
2024-03-03T08:25:55.170Z,2.63
2024-03-03T08:29:06.818Z,2.83
2024-03-03T09:09:22.599Z,3.97
2024-03-03T09:12:26.134Z,3.22
2024-03-03T09:15:31.895Z,3.88
2024-03-03T09:18:35.053Z,4.30
2024-03-03T09:21:42.486Z,4.03
2024-03-03T09:24:46.018Z,4.10
2024-03-03T09:27:50.321Z,3.92
2024-03-03T09:30:54.693Z,3.55
2024-03-03T09:33:59.044Z,3.00
2024-03-03T09:37:02.947Z,3.30
2024-03-03T09:40:15.141Z,4.07
2024-03-03T09:43:18.915Z,3.28
2024-03-03T09:46:24.919Z,2.58
2024-03-03T09:49:31.032Z,3.40
2024-03-03T09:52:35.688Z,5.97
2024-03-03T09:55:40.585Z,7.50
2024-03-03T09:58:44.276Z,5.63
2024-03-03T10:01:54.200Z,5.32
2024-03-03T10:05:00.063Z,3.92
2024-03-03T10:08:05.361Z,3.67
2024-03-03T10:11:14.368Z,4.20
2024-03-03T10:14:20.574Z,3.88
2024-03-03T10:17:24.382Z,3.78
2024-03-03T10:20:28.690Z,3.75
2024-03-03T10:23:34.696Z,4.55
2024-03-03T10:26:38.097Z,4.43
2024-03-03T10:29:45.307Z,5.63
2024-03-03T10:32:49.866Z,6.07
2024-03-03T10:36:11.508Z,5.90
2024-03-03T10:39:19.448Z,6.90
2024-03-03T10:42:23.983Z,7.90
2024-03-03T10:45:27.604Z,7.15
2024-03-03T10:48:31.576Z,8.57
2024-03-03T10:51:37.099Z,8.40
2024-03-03T10:54:41.130Z,13.40
2024-03-03T10:57:46.384Z,13.63
2024-03-03T11:00:52.874Z,14.18
2024-03-03T11:03:58.179Z,12.40
2024-03-03T11:07:04.792Z,5.85
2024-03-03T11:10:09.504Z,3.53
2024-03-03T11:13:15.886Z,7.40
2024-03-03T11:16:20.939Z,3.70
2024-03-03T11:19:38.389Z,6.07
2024-03-03T11:22:59.820Z,5.57
2024-03-03T11:26:21.121Z,4.78
2024-03-03T11:29:27.021Z,4.25
2024-03-03T11:32:33.569Z,4.35
2024-03-03T11:35:37.027Z,6.05
2024-03-03T11:38:49.720Z,6.20
2024-03-03T11:41:54.293Z,4.30
2024-03-03T11:44:59.901Z,6.18
2024-03-03T11:48:04.659Z,5.30
2024-03-03T11:51:27.985Z,5.05
2024-03-03T11:54:40.124Z,6.00
2024-03-03T11:57:47.345Z,6.18
2024-03-03T12:01:11.515Z,5.78
2024-03-03T12:04:16.094Z,5.75
2024-03-03T12:07:20.928Z,5.28
2024-03-03T12:10:26.426Z,4.38
2024-03-03T12:13:30.386Z,3.22
2024-03-03T12:16:34.260Z,9.40
2024-03-03T12:19:38.885Z,10.00
2024-03-03T12:22:43.355Z,6.80
2024-03-03T12:25:46.492Z,8.70
2024-03-03T12:28:50.866Z,7.25
2024-03-03T12:31:53.913Z,6.38
2024-03-03T12:34:58.625Z,7.47
2024-03-03T12:38:03.297Z,9.20
2024-03-03T12:41:09.898Z,8.95
2024-03-03T12:44:14.263Z,13.13
2024-03-03T12:47:18.452Z,11.40
2024-03-03T12:50:22.448Z,9.40
2024-03-03T12:53:39.283Z,10.52
2024-03-03T12:56:45.341Z,13.45
2024-03-03T12:59:49.556Z,12.80
2024-03-03T13:02:53.412Z,13.52
2024-03-03T13:05:57.535Z,13.60
2024-03-03T13:09:01.368Z,14.85
2024-03-03T13:12:08.135Z,13.25
2024-03-03T13:15:12.412Z,12.13
2024-03-03T13:18:17.543Z,13.18
2024-03-03T13:21:21.510Z,10.07
2024-03-03T13:24:25.765Z,11.88
2024-03-03T13:27:34.594Z,11.80
2024-03-03T13:30:38.272Z,12.10
2024-03-03T13:33:41.674Z,14.27
2024-03-03T13:39:48.443Z,12.57
2024-03-03T13:42:52.192Z,11.23
2024-03-03T13:45:56.183Z,11.20
2024-03-03T13:49:00.512Z,9.48
2024-03-03T13:52:06.719Z,8.25
2024-03-03T13:55:10.327Z,8.40
2024-03-03T13:58:13.905Z,8.63
2024-03-03T14:01:18.010Z,9.50
2024-03-03T14:04:21.822Z,10.15
2024-03-03T14:10:29.219Z,6.30
2024-03-03T14:13:33.049Z,8.40
2024-03-03T14:16:37.323Z,8.02
2024-03-03T14:19:41.662Z,6.68
2024-03-03T14:22:51.556Z,7.93
2024-03-03T14:25:55.663Z,6.82
2024-03-03T14:28:59.811Z,7.72
2024-03-03T14:32:04.262Z,7.95
2024-03-03T14:35:09.237Z,7.82
2024-03-03T14:38:12.869Z,7.47
2024-03-03T14:41:16.977Z,8.23
2024-03-03T14:44:20.880Z,7.63
2024-03-03T14:47:25.382Z,9.15
2024-03-03T14:50:29.127Z,7.32
2024-03-03T14:53:34.205Z,7.35
2024-03-03T14:56:38.590Z,8.23
2024-03-03T14:59:41.629Z,7.60
2024-03-03T15:02:45.942Z,9.65
2024-03-03T15:05:49.622Z,8.93
2024-03-03T15:08:53.620Z,9.27
2024-03-03T15:11:57.670Z,7.78
2024-03-03T15:15:02.375Z,7.25
2024-03-03T15:18:05.958Z,8.48
2024-03-03T15:21:10.202Z,9.98
2024-03-03T15:24:13.203Z,9.30
2024-03-03T15:27:17.574Z,11.65
2024-03-03T15:30:20.837Z,8.05
2024-03-03T15:33:25.419Z,10.18
2024-03-03T15:36:28.861Z,9.25
2024-03-03T15:39:34.429Z,12.10
2024-03-03T15:42:42.832Z,11.85
2024-03-03T15:45:47.066Z,13.30
2024-03-03T15:48:50.702Z,14.45
2024-03-03T15:51:54.956Z,11.93
2024-03-03T15:54:58.186Z,10.65
2024-03-03T15:58:02.532Z,10.07
2024-03-03T16:01:06.044Z,11.82
2024-03-03T16:04:09.387Z,11.15
2024-03-03T16:07:13.505Z,9.85
2024-03-03T16:13:21.316Z,9.10
2024-03-03T16:16:28.510Z,7.40
2024-03-03T16:19:32.451Z,10.05
2024-03-03T16:22:36.609Z,10.02
2024-03-03T16:25:39.765Z,7.28
2024-03-03T16:28:43.799Z,11.50
2024-03-03T16:31:48.112Z,11.73
2024-03-03T16:34:52.388Z,9.15
2024-03-03T16:38:00.890Z,7.78
2024-03-03T16:41:05.203Z,10.52
2024-03-03T16:44:08.950Z,10.45
2024-03-03T16:50:16.555Z,16.45
2024-03-03T16:53:23.443Z,10.60
2024-03-03T16:56:26.708Z,11.38
2024-03-03T16:59:29.759Z,12.55
2024-03-03T17:02:32.906Z,10.38
2024-03-03T17:05:36.225Z,11.52
2024-03-03T17:08:40.040Z,11.77
2024-03-03T17:11:44.897Z,12.07
2024-03-03T17:14:48.492Z,7.65
2024-03-03T17:17:52.177Z,7.68
2024-03-03T17:20:56.134Z,8.55
2024-03-03T17:27:03.333Z,6.72
2024-03-03T17:30:09.647Z,5.68
2024-03-03T17:33:13.556Z,7.35
2024-03-03T17:36:16.990Z,6.03
2024-03-03T17:39:20.941Z,5.50
2024-03-03T17:42:24.769Z,6.80
2024-03-03T17:48:33.719Z,6.85
2024-03-03T17:51:37.486Z,7.28
2024-03-03T17:54:41.184Z,5.43
2024-03-03T17:57:44.942Z,6.65
2024-03-03T18:03:54.269Z,4.82
2024-03-03T18:06:58.402Z,4.53
2024-03-03T18:13:05.462Z,4.25
2024-03-03T18:19:13.595Z,5.70
2024-03-03T18:22:17.398Z,5.07
2024-03-03T18:25:21.590Z,4.70
2024-03-03T18:28:30.740Z,6.00
2024-03-03T18:31:33.998Z,6.32
2024-03-03T18:34:37.287Z,6.00
2024-03-03T18:37:41.509Z,5.00
2024-03-03T18:40:45.304Z,4.93
2024-03-03T18:46:52.406Z,5.78
2024-03-03T18:49:55.759Z,6.80
2024-03-03T18:52:59.711Z,4.95
2024-03-03T18:56:04.354Z,7.65
2024-03-03T18:59:08.129Z,5.18
2024-03-03T19:02:11.576Z,5.30
2024-03-03T19:05:15.883Z,5.82
2024-03-03T19:08:19.617Z,6.28
2024-03-03T19:14:26.230Z,4.70
2024-03-03T19:17:29.287Z,6.13
2024-03-03T19:20:33.017Z,4.57
2024-03-03T19:23:36.669Z,4.60
2024-03-03T19:29:43.357Z,4.38
2024-03-03T19:32:46.788Z,4.22
2024-03-03T19:35:50.532Z,1.52
2024-03-03T19:38:54.843Z,3.30
2024-03-03T19:41:58.819Z,5.85
2024-03-03T19:45:01.848Z,4.47
2024-03-03T19:48:05.364Z,5.72
2024-03-03T19:51:09.206Z,4.97
2024-03-03T19:57:16.256Z,5.78
2024-03-03T20:03:23.313Z,4.72
2024-03-03T20:06:26.747Z,4.50
2024-03-03T20:09:30.737Z,2.13
2024-03-03T20:12:34.460Z,4.25
2024-03-03T20:15:38.190Z,5.25
2024-03-03T20:18:42.460Z,5.25
2024-03-03T20:21:48.216Z,3.63
2024-03-03T20:24:51.639Z,3.17
2024-03-03T20:27:55.940Z,4.22
2024-03-03T20:31:00.188Z,4.25
2024-03-03T20:34:04.087Z,3.92
2024-03-03T20:37:07.391Z,4.13
2024-03-03T20:40:13.984Z,3.60
2024-03-03T20:43:18.095Z,3.70
2024-03-03T20:46:22.310Z,4.10
2024-03-03T20:49:26.202Z,4.22
2024-03-03T20:52:30.218Z,3.17
2024-03-03T20:55:33.855Z,3.42
2024-03-03T21:01:41.314Z,3.05
2024-03-03T21:04:46.635Z,4.40
2024-03-03T21:07:50.351Z,3.10
2024-03-03T21:10:54.458Z,3.85
2024-03-03T21:13:59.411Z,3.30
2024-03-03T21:17:03.279Z,2.47
2024-03-03T21:20:07.238Z,2.80
2024-03-03T21:23:11.196Z,3.95
2024-03-03T21:26:14.475Z,3.25
2024-03-03T21:29:18.469Z,1.77
2024-03-03T21:32:22.160Z,3.33
2024-03-03T21:35:25.872Z,3.40
2024-03-03T21:38:29.483Z,2.83
2024-03-03T21:41:33.539Z,2.88
2024-03-03T21:44:37.216Z,2.55
2024-03-03T21:47:40.969Z,2.50
2024-03-03T21:50:45.856Z,4.47
2024-03-03T21:53:51.992Z,3.38
2024-03-03T21:56:55.301Z,3.88
2024-03-03T21:59:59.659Z,3.45
2024-03-03T22:03:03.416Z,4.28
2024-03-03T22:06:07.876Z,3.42
2024-03-03T22:09:11.514Z,4.20
2024-03-03T22:12:15.695Z,3.60
2024-03-03T22:15:19.507Z,5.13
2024-03-03T22:18:23.309Z,6.13
2024-03-03T22:21:28.964Z,4.05
2024-03-03T22:24:33.107Z,3.20
2024-03-03T22:27:36.506Z,3.83
2024-03-03T22:30:41.731Z,3.63
2024-03-03T22:33:45.068Z,4.82
2024-03-03T22:36:50.605Z,6.82
2024-03-03T22:39:56.374Z,3.85
2024-03-03T22:43:00.156Z,3.15
2024-03-03T22:46:03.967Z,3.65
2024-03-03T22:49:07.702Z,7.43
2024-03-03T22:52:11.460Z,4.80
2024-03-03T22:55:15.356Z,5.68
2024-03-03T22:58:19.141Z,4.55
2024-03-03T23:01:22.859Z,8.43
2024-03-03T23:04:26.781Z,4.60
2024-03-03T23:10:37.540Z,5.55
2024-03-03T23:13:41.359Z,6.45
2024-03-03T23:16:45.845Z,6.40
2024-03-03T23:19:49.893Z,3.38
2024-03-03T23:22:53.629Z,2.63
2024-03-03T23:25:57.532Z,3.03
2024-03-03T23:32:05.236Z,4.28
2024-03-03T23:35:08.762Z,5.82
2024-03-03T23:38:13.240Z,2.65
2024-03-03T23:41:16.519Z,5.97
2024-03-03T23:47:26.734Z,7.35
2024-03-03T23:50:32.887Z,7.68
2024-03-03T23:53:36.672Z,7.47
2024-03-03T23:56:40.773Z,8.45
2024-03-03T23:59:44.289Z,5.55
